sensor_id;sensor_type;location;lat;lon;timestamp;pressure;altitude;pressure_sealevel;temperature;humidity
53908;BME280;40469;47.998;7.794;2022-07-22T00:00:42;99228.34;;;20.42;73.11
53908;BME280;40469;47.998;7.794;2022-07-22T00:03:10;99224.47;;;20.30;73.03
53908;BME280;40469;47.998;7.794;2022-07-22T00:05:35;99221.81;;;20.30;73.94
53908;BME280;40469;47.998;7.794;2022-07-22T00:08:00;99215.25;;;20.18;73.79
53908;BME280;40469;47.998;7.794;2022-07-22T00:10:26;99215.13;;;20.21;73.66
53908;BME280;40469;47.998;7.794;2022-07-22T00:12:51;99211.09;;;20.13;73.48
53908;BME280;40469;47.998;7.794;2022-07-22T00:15:17;99214.59;;;20.13;73.84
53908;BME280;40469;47.998;7.794;2022-07-22T00:17:42;99207.59;;;20.31;73.24
53908;BME280;40469;47.998;7.794;2022-07-22T00:20:08;99208.69;;;20.27;73.06
53908;BME280;40469;47.998;7.794;2022-07-22T00:22:34;99210.09;;;20.15;73.72
53908;BME280;40469;47.998;7.794;2022-07-22T00:25:00;99201.53;;;20.10;73.83
53908;BME280;40469;47.998;7.794;2022-07-22T00:27:25;99206.81;;;20.10;73.43
53908;BME280;40469;47.998;7.794;2022-07-22T00:29:50;99197.63;;;19.98;74.67
53908;BME280;40469;47.998;7.794;2022-07-22T00:32:16;99200.69;;;19.89;74.77
53908;BME280;40469;47.998;7.794;2022-07-22T00:34:41;99195.38;;;19.89;75.01
53908;BME280;40469;47.998;7.794;2022-07-22T00:37:06;99191.84;;;19.88;75.17
53908;BME280;40469;47.998;7.794;2022-07-22T00:39:32;99195.38;;;19.89;75.08
53908;BME280;40469;47.998;7.794;2022-07-22T00:41:58;99195.16;;;19.94;74.36
53908;BME280;40469;47.998;7.794;2022-07-22T00:44:24;99183.34;;;19.82;74.82
53908;BME280;40469;47.998;7.794;2022-07-22T00:46:49;99185.03;;;19.83;74.69
53908;BME280;40469;47.998;7.794;2022-07-22T00:49:15;99188.69;;;19.80;75.51
53908;BME280;40469;47.998;7.794;2022-07-22T00:51:40;99183.41;;;19.80;75.82
53908;BME280;40469;47.998;7.794;2022-07-22T00:54:06;99181.66;;;19.79;75.75
53908;BME280;40469;47.998;7.794;2022-07-22T00:56:32;99189.88;;;19.73;75.15
53908;BME280;40469;47.998;7.794;2022-07-22T00:59:00;99187.34;;;19.70;75.02
53908;BME280;40469;47.998;7.794;2022-07-22T01:01:27;99188.41;;;19.66;75.16
53908;BME280;40469;47.998;7.794;2022-07-22T01:03:52;99183.19;;;19.64;75.03
53908;BME280;40469;47.998;7.794;2022-07-22T01:06:18;99188.31;;;19.67;75.29
53908;BME280;40469;47.998;7.794;2022-07-22T01:08:43;99189.47;;;19.62;75.75
53908;BME280;40469;47.998;7.794;2022-07-22T01:11:17;99176.50;;;19.56;75.31
53908;BME280;40469;47.998;7.794;2022-07-22T01:13:44;99184.69;;;19.49;76.10
53908;BME280;40469;47.998;7.794;2022-07-22T01:16:11;99178.72;;;19.44;75.51
53908;BME280;40469;47.998;7.794;2022-07-22T01:18:38;99174.16;;;19.48;75.77
53908;BME280;40469;47.998;7.794;2022-07-22T01:21:04;99178.66;;;19.46;76.38
53908;BME280;40469;47.998;7.794;2022-07-22T01:23:30;99179.72;;;19.42;76.33
53908;BME280;40469;47.998;7.794;2022-07-22T01:25:56;99180.13;;;19.32;76.65
53908;BME280;40469;47.998;7.794;2022-07-22T01:28:21;99186.28;;;19.33;76.75
53908;BME280;40469;47.998;7.794;2022-07-22T01:30:47;99188.06;;;19.32;76.80
53908;BME280;40469;47.998;7.794;2022-07-22T01:33:15;99189.16;;;19.27;77.15
53908;BME280;40469;47.998;7.794;2022-07-22T01:35:41;99188.66;;;19.19;77.30
53908;BME280;40469;47.998;7.794;2022-07-22T01:38:06;99180.88;;;19.14;77.63
53908;BME280;40469;47.998;7.794;2022-07-22T01:40:32;99179.25;;;19.11;79.07
53908;BME280;40469;47.998;7.794;2022-07-22T01:42:57;99183.13;;;19.03;79.07
53908;BME280;40469;47.998;7.794;2022-07-22T01:45:22;99181.38;;;19.02;78.99
53908;BME280;40469;47.998;7.794;2022-07-22T01:47:48;99186.56;;;19.05;78.45
53908;BME280;40469;47.998;7.794;2022-07-22T01:50:13;99193.75;;;19.01;78.56
53908;BME280;40469;47.998;7.794;2022-07-22T01:52:39;99185.94;;;18.98;78.31
53908;BME280;40469;47.998;7.794;2022-07-22T01:55:06;99196.66;;;18.95;79.08
53908;BME280;40469;47.998;7.794;2022-07-22T01:57:32;99193.09;;;18.96;78.89
53908;BME280;40469;47.998;7.794;2022-07-22T01:59:57;99198.50;;;18.93;79.22
53908;BME280;40469;47.998;7.794;2022-07-22T02:02:22;99194.88;;;18.96;78.93
53908;BME280;40469;47.998;7.794;2022-07-22T02:04:48;99187.28;;;18.86;80.22
53908;BME280;40469;47.998;7.794;2022-07-22T02:07:13;99191.78;;;18.84;80.47
53908;BME280;40469;47.998;7.794;2022-07-22T02:09:39;99194.59;;;18.80;80.76
53908;BME280;40469;47.998;7.794;2022-07-22T02:12:04;99189.09;;;18.86;80.15
53908;BME280;40469;47.998;7.794;2022-07-22T02:14:30;99191.00;;;18.81;80.98
53908;BME280;40469;47.998;7.794;2022-07-22T02:16:55;99187.84;;;18.72;80.59
53908;BME280;40469;47.998;7.794;2022-07-22T02:19:20;99187.16;;;18.67;79.91
53908;BME280;40469;47.998;7.794;2022-07-22T02:21:46;99191.00;;;18.59;81.04
53908;BME280;40469;47.998;7.794;2022-07-22T02:24:11;99189.59;;;18.50;82.71
53908;BME280;40469;47.998;7.794;2022-07-22T02:26:37;99189.81;;;18.44;82.46
53908;BME280;40469;47.998;7.794;2022-07-22T02:29:02;99194.13;;;18.46;82.67
53908;BME280;40469;47.998;7.794;2022-07-22T02:31:28;99194.25;;;18.43;82.75
53908;BME280;40469;47.998;7.794;2022-07-22T02:33:54;99189.19;;;18.37;83.65
53908;BME280;40469;47.998;7.794;2022-07-22T02:36:19;99189.19;;;18.37;83.10
53908;BME280;40469;47.998;7.794;2022-07-22T02:38:44;99196.25;;;18.36;83.39
53908;BME280;40469;47.998;7.794;2022-07-22T02:41:10;99186.69;;;18.34;83.40
53908;BME280;40469;47.998;7.794;2022-07-22T02:43:35;99194.66;;;18.32;83.33
53908;BME280;40469;47.998;7.794;2022-07-22T02:46:01;99203.63;;;18.28;83.30
53908;BME280;40469;47.998;7.794;2022-07-22T02:48:26;99195.91;;;18.22;83.83
53908;BME280;40469;47.998;7.794;2022-07-22T02:50:52;99194.19;;;18.21;84.80
53908;BME280;40469;47.998;7.794;2022-07-22T02:53:17;99197.00;;;18.16;84.78
53908;BME280;40469;47.998;7.794;2022-07-22T02:55:43;99185.03;;;18.30;82.98
53908;BME280;40469;47.998;7.794;2022-07-22T02:58:09;99189.81;;;18.44;82.28
53908;BME280;40469;47.998;7.794;2022-07-22T03:00:36;99189.06;;;18.40;82.11
53908;BME280;40469;47.998;7.794;2022-07-22T03:03:03;99190.81;;;18.41;80.81
53908;BME280;40469;47.998;7.794;2022-07-22T03:05:28;99187.91;;;18.47;80.29
53908;BME280;40469;47.998;7.794;2022-07-22T03:07:54;99187.75;;;18.52;79.36
53908;BME280;40469;47.998;7.794;2022-07-22T03:10:19;99182.63;;;18.47;79.83
53908;BME280;40469;47.998;7.794;2022-07-22T03:12:45;99179.25;;;18.44;80.50
53908;BME280;40469;47.998;7.794;2022-07-22T03:15:10;99182.25;;;18.34;80.56
53908;BME280;40469;47.998;7.794;2022-07-22T03:17:36;99181.44;;;18.32;80.85
53908;BME280;40469;47.998;7.794;2022-07-22T03:20:06;99181.59;;;18.28;81.22
53908;BME280;40469;47.998;7.794;2022-07-22T03:22:32;99185.94;;;18.30;80.66
53908;BME280;40469;47.998;7.794;2022-07-22T03:24:58;99189.88;;;18.18;81.83
53908;BME280;40469;47.998;7.794;2022-07-22T03:27:23;99188.41;;;18.11;81.86
53908;BME280;40469;47.998;7.794;2022-07-22T03:29:48;99190.97;;;18.13;82.04
53908;BME280;40469;47.998;7.794;2022-07-22T03:32:14;99186.72;;;18.09;81.72
53908;BME280;40469;47.998;7.794;2022-07-22T03:34:39;99189.59;;;18.03;83.30
53908;BME280;40469;47.998;7.794;2022-07-22T03:37:05;99187.84;;;18.02;83.20
53908;BME280;40469;47.998;7.794;2022-07-22T03:39:30;99185.41;;;17.97;83.68
53908;BME280;40469;47.998;7.794;2022-07-22T03:41:55;99190.72;;;17.95;83.72
53908;BME280;40469;47.998;7.794;2022-07-22T03:44:21;99172.34;;;17.92;83.39
53908;BME280;40469;47.998;7.794;2022-07-22T03:46:46;99180.97;;;17.97;82.97
53908;BME280;40469;47.998;7.794;2022-07-22T03:49:11;99170.56;;;17.93;83.34
53908;BME280;40469;47.998;7.794;2022-07-22T03:51:37;99182.06;;;17.92;82.99
53908;BME280;40469;47.998;7.794;2022-07-22T03:54:02;99174.13;;;17.92;82.80
53908;BME280;40469;47.998;7.794;2022-07-22T03:56:28;99171.72;;;17.84;84.38
53908;BME280;40469;47.998;7.794;2022-07-22T03:58:53;99174.38;;;17.84;84.87
53908;BME280;40469;47.998;7.794;2022-07-22T04:01:18;99178.75;;;17.85;85.30
53908;BME280;40469;47.998;7.794;2022-07-22T04:03:44;99177.69;;;17.91;85.37
53908;BME280;40469;47.998;7.794;2022-07-22T04:06:09;99177.88;;;17.86;84.99
53908;BME280;40469;47.998;7.794;2022-07-22T04:08:35;99176.09;;;17.87;85.00
53908;BME280;40469;47.998;7.794;2022-07-22T04:11:00;99175.28;;;17.83;84.88
53908;BME280;40469;47.998;7.794;2022-07-22T04:13:25;99172.59;;;17.86;85.95
53908;BME280;40469;47.998;7.794;2022-07-22T04:15:51;99171.09;;;17.77;86.24
53908;BME280;40469;47.998;7.794;2022-07-22T04:18:16;99169.59;;;17.70;86.62
53908;BME280;40469;47.998;7.794;2022-07-22T04:20:42;99161.84;;;17.66;87.12
53908;BME280;40469;47.998;7.794;2022-07-22T04:23:08;99166.22;;;17.67;87.50
53908;BME280;40469;47.998;7.794;2022-07-22T04:25:33;99167.88;;;17.69;88.97
53908;BME280;40469;47.998;7.794;2022-07-22T04:27:59;99172.94;;;17.75;91.85
53908;BME280;40469;47.998;7.794;2022-07-22T04:30:25;99175.50;;;17.77;92.58
53908;BME280;40469;47.998;7.794;2022-07-22T04:32:50;99171.22;;;17.74;93.67
53908;BME280;40469;47.998;7.794;2022-07-22T04:35:16;99164.94;;;17.77;94.47
53908;BME280;40469;47.998;7.794;2022-07-22T04:37:42;99169.38;;;17.76;95.28
53908;BME280;40469;47.998;7.794;2022-07-22T04:40:07;99171.16;;;17.76;95.63
53908;BME280;40469;47.998;7.794;2022-07-22T04:42:33;99171.97;;;17.78;95.98
53908;BME280;40469;47.998;7.794;2022-07-22T04:44:58;99171.16;;;17.76;97.25
53908;BME280;40469;47.998;7.794;2022-07-22T04:47:23;99174.59;;;17.78;98.23
53908;BME280;40469;47.998;7.794;2022-07-22T04:49:49;99176.38;;;17.77;98.35
53908;BME280;40469;47.998;7.794;2022-07-22T04:52:14;99162.53;;;17.71;99.33
53908;BME280;40469;47.998;7.794;2022-07-22T04:54:40;99160.78;;;17.70;100.00
53908;BME280;40469;47.998;7.794;2022-07-22T04:57:05;99167.06;;;17.67;100.00
53908;BME280;40469;47.998;7.794;2022-07-22T04:59:30;99177.34;;;17.75;100.00
53908;BME280;40469;47.998;7.794;2022-07-22T05:01:56;99161.50;;;17.75;100.00
53908;BME280;40469;47.998;7.794;2022-07-22T05:04:21;99168.41;;;17.79;100.00
53908;BME280;40469;47.998;7.794;2022-07-22T05:06:47;99173.56;;;17.82;100.00
53908;BME280;40469;47.998;7.794;2022-07-22T05:09:12;99169.16;;;17.83;100.00
53908;BME280;40469;47.998;7.794;2022-07-22T05:11:37;99163.78;;;17.84;100.00
53908;BME280;40469;47.998;7.794;2022-07-22T05:14:03;99170.97;;;17.80;100.00
53908;BME280;40469;47.998;7.794;2022-07-22T05:16:28;99166.56;;;17.81;100.00
53908;BME280;40469;47.998;7.794;2022-07-22T05:18:54;99169.16;;;17.83;100.00
53908;BME280;40469;47.998;7.794;2022-07-22T05:21:19;99163.69;;;17.89;100.00
53908;BME280;40469;47.998;7.794;2022-07-22T05:23:44;99173.38;;;17.88;100.00
53908;BME280;40469;47.998;7.794;2022-07-22T05:26:10;99172.34;;;17.92;100.00
53908;BME280;40469;47.998;7.794;2022-07-22T05:28:35;99168.75;;;17.95;100.00
53908;BME280;40469;47.998;7.794;2022-07-22T05:31:01;99170.34;;;17.99;99.70
53908;BME280;40469;47.998;7.794;2022-07-22T05:33:26;99163.16;;;18.03;100.00
53908;BME280;40469;47.998;7.794;2022-07-22T05:35:52;99173.59;;;18.07;99.77
53908;BME280;40469;47.998;7.794;2022-07-22T05:38:17;99174.44;;;18.08;99.94
53908;BME280;40469;47.998;7.794;2022-07-22T05:40:42;99175.13;;;18.13;99.38
53908;BME280;40469;47.998;7.794;2022-07-22T05:43:08;99174.19;;;18.14;99.01
53908;BME280;40469;47.998;7.794;2022-07-22T05:45:33;99169.72;;;18.16;97.71
53908;BME280;40469;47.998;7.794;2022-07-22T05:47:59;99167.88;;;18.18;97.35
53908;BME280;40469;47.998;7.794;2022-07-22T05:50:24;99172.38;;;18.16;97.44
53908;BME280;40469;47.998;7.794;2022-07-22T05:52:49;99163.47;;;18.18;97.67
53908;BME280;40469;47.998;7.794;2022-07-22T05:55:15;99161.66;;;18.19;97.55
53908;BME280;40469;47.998;7.794;2022-07-22T05:57:40;99164.31;;;18.19;96.61
53908;BME280;40469;47.998;7.794;2022-07-22T06:00:06;99165.06;;;18.23;96.29
53908;BME280;40469;47.998;7.794;2022-07-22T06:02:32;99176.31;;;18.28;96.14
53908;BME280;40469;47.998;7.794;2022-07-22T06:04:57;99172.47;;;18.36;97.21
53908;BME280;40469;47.998;7.794;2022-07-22T06:07:25;99164.66;;;18.33;95.07
53908;BME280;40469;47.998;7.794;2022-07-22T06:09:51;99169.75;;;18.38;95.88
53908;BME280;40469;47.998;7.794;2022-07-22T06:12:16;99173.03;;;18.45;95.00
53908;BME280;40469;47.998;7.794;2022-07-22T06:14:41;99172.00;;;18.49;95.25
53908;BME280;40469;47.998;7.794;2022-07-22T06:17:07;99177.97;;;18.54;94.84
53908;BME280;40469;47.998;7.794;2022-07-22T06:19:32;99176.31;;;18.51;94.20
53908;BME280;40469;47.998;7.794;2022-07-22T06:21:58;99174.53;;;18.52;94.03
53908;BME280;40469;47.998;7.794;2022-07-22T06:24:23;99177.59;;;18.63;93.17
53908;BME280;40469;47.998;7.794;2022-07-22T06:26:48;99173.78;;;18.70;92.68
53908;BME280;40469;47.998;7.794;2022-07-22T06:29:14;99172.75;;;18.74;93.32
53908;BME280;40469;47.998;7.794;2022-07-22T06:31:40;99169.00;;;18.80;92.60
53908;BME280;40469;47.998;7.794;2022-07-22T06:34:05;99172.16;;;18.90;92.01
53908;BME280;40469;47.998;7.794;2022-07-22T06:36:32;99166.69;;;18.94;91.17
53908;BME280;40469;47.998;7.794;2022-07-22T06:38:57;99168.38;;;18.97;90.82
53908;BME280;40469;47.998;7.794;2022-07-22T06:41:23;99162.75;;;19.05;91.51
53908;BME280;40469;47.998;7.794;2022-07-22T06:43:48;99165.94;;;19.13;91.16
53908;BME280;40469;47.998;7.794;2022-07-22T06:46:14;99163.94;;;19.18;90.76
53908;BME280;40469;47.998;7.794;2022-07-22T06:48:39;99159.91;;;19.30;89.48
53908;BME280;40469;47.998;7.794;2022-07-22T06:51:05;99161.44;;;19.36;88.57
53908;BME280;40469;47.998;7.794;2022-07-22T06:53:32;99151.66;;;19.38;89.14
53908;BME280;40469;47.998;7.794;2022-07-22T06:55:57;99148.00;;;19.40;88.25
53908;BME280;40469;47.998;7.794;2022-07-22T06:58:22;99143.44;;;19.44;86.88
53908;BME280;40469;47.998;7.794;2022-07-22T07:00:48;99147.84;;;19.45;86.15
53908;BME280;40469;47.998;7.794;2022-07-22T07:03:14;99142.19;;;19.52;86.46
53908;BME280;40469;47.998;7.794;2022-07-22T07:05:39;99147.94;;;19.62;85.76
53908;BME280;40469;47.998;7.794;2022-07-22T07:08:05;99154.78;;;19.68;85.63
53908;BME280;40469;47.998;7.794;2022-07-22T07:10:31;99153.44;;;19.78;85.87
53908;BME280;40469;47.998;7.794;2022-07-22T07:12:57;99150.47;;;19.86;86.36
53908;BME280;40469;47.998;7.794;2022-07-22T07:15:23;99155.47;;;19.92;86.26
53908;BME280;40469;47.998;7.794;2022-07-22T07:17:49;99157.06;;;19.96;85.22
53908;BME280;40469;47.998;7.794;2022-07-22T07:20:15;99152.44;;;20.01;84.17
53908;BME280;40469;47.998;7.794;2022-07-22T07:22:40;99149.34;;;20.11;82.05
53908;BME280;40469;47.998;7.794;2022-07-22T07:25:07;99149.00;;;20.18;81.11
53908;BME280;40469;47.998;7.794;2022-07-22T07:27:33;99147.50;;;20.13;80.88
53908;BME280;40469;47.998;7.794;2022-07-22T07:29:58;99145.56;;;20.16;80.48
53908;BME280;40469;47.998;7.794;2022-07-22T07:32:24;99140.25;;;20.16;80.81
53908;BME280;40469;47.998;7.794;2022-07-22T07:34:49;99140.91;;;20.21;80.70
53908;BME280;40469;47.998;7.794;2022-07-22T07:37:15;99143.97;;;20.31;80.78
53908;BME280;40469;47.998;7.794;2022-07-22T07:39:41;99141.81;;;20.39;80.55
53908;BME280;40469;47.998;7.794;2022-07-22T07:42:06;99147.13;;;20.39;80.02
53908;BME280;40469;47.998;7.794;2022-07-22T07:44:32;99147.00;;;20.42;80.22
53908;BME280;40469;47.998;7.794;2022-07-22T07:46:57;99140.31;;;20.53;81.30
53908;BME280;40469;47.998;7.794;2022-07-22T07:49:22;99142.50;;;20.63;80.14
53908;BME280;40469;47.998;7.794;2022-07-22T07:51:48;99145.47;;;20.75;78.80
53908;BME280;40469;47.998;7.794;2022-07-22T07:54:14;99147.75;;;20.82;77.74
53908;BME280;40469;47.998;7.794;2022-07-22T07:56:39;99142.34;;;20.84;77.03
53908;BME280;40469;47.998;7.794;2022-07-22T07:59:05;99146.22;;;20.96;77.19
53908;BME280;40469;47.998;7.794;2022-07-22T08:01:30;99134.59;;;20.98;76.87
53908;BME280;40469;47.998;7.794;2022-07-22T08:03:56;99135.63;;;21.13;77.00
53908;BME280;40469;47.998;7.794;2022-07-22T08:06:22;99130.00;;;21.19;76.10
53908;BME280;40469;47.998;7.794;2022-07-22T08:08:47;99133.66;;;21.17;75.02
53908;BME280;40469;47.998;7.794;2022-07-22T08:11:12;99129.75;;;21.24;74.56
53908;BME280;40469;47.998;7.794;2022-07-22T08:13:38;99126.47;;;21.36;74.44
53908;BME280;40469;47.998;7.794;2022-07-22T08:16:04;99127.09;;;21.42;73.28
53908;BME280;40469;47.998;7.794;2022-07-22T08:18:29;99118.03;;;21.46;73.65
53908;BME280;40469;47.998;7.794;2022-07-22T08:20:55;99120.69;;;21.46;72.67
53908;BME280;40469;47.998;7.794;2022-07-22T08:23:21;99109.94;;;21.49;72.89
53908;BME280;40469;47.998;7.794;2022-07-22T08:25:47;99109.44;;;21.58;73.15
53908;BME280;40469;47.998;7.794;2022-07-22T08:28:12;99111.78;;;21.64;72.27
53908;BME280;40469;47.998;7.794;2022-07-22T08:30:38;99108.47;;;21.76;72.06
53908;BME280;40469;47.998;7.794;2022-07-22T08:33:05;99096.34;;;21.88;69.46
53908;BME280;40469;47.998;7.794;2022-07-22T08:35:31;99102.69;;;22.18;68.83
53908;BME280;40469;47.998;7.794;2022-07-22T08:37:56;99103.22;;;22.24;67.87
53908;BME280;40469;47.998;7.794;2022-07-22T08:40:22;99102.22;;;22.27;68.25
53908;BME280;40469;47.998;7.794;2022-07-22T08:42:48;99100.00;;;22.35;68.79
53908;BME280;40469;47.998;7.794;2022-07-22T08:45:14;99093.28;;;22.44;68.16
53908;BME280;40469;47.998;7.794;2022-07-22T08:47:43;99087.34;;;22.55;68.34
53908;BME280;40469;47.998;7.794;2022-07-22T08:50:09;99087.19;;;22.58;67.69
53908;BME280;40469;47.998;7.794;2022-07-22T08:52:35;99078.22;;;22.75;66.16
53908;BME280;40469;47.998;7.794;2022-07-22T08:55:05;99080.44;;;22.82;67.14
53908;BME280;40469;47.998;7.794;2022-07-22T08:57:31;99073.34;;;22.97;66.41
53908;BME280;40469;47.998;7.794;2022-07-22T08:59:58;99083.59;;;23.05;66.80
53908;BME280;40469;47.998;7.794;2022-07-22T09:02:24;99073.31;;;23.13;67.41
53908;BME280;40469;47.998;7.794;2022-07-22T09:04:51;99068.59;;;23.33;67.72
53908;BME280;40469;47.998;7.794;2022-07-22T09:07:32;99068.16;;;23.55;65.39
53908;BME280;40469;47.998;7.794;2022-07-22T09:10:00;99059.41;;;23.67;64.79
53908;BME280;40469;47.998;7.794;2022-07-22T09:12:26;99060.91;;;23.71;66.29
53908;BME280;40469;47.998;7.794;2022-07-22T09:14:55;99069.31;;;23.79;64.76
53908;BME280;40469;47.998;7.794;2022-07-22T09:19:52;99058.97;;;24.31;62.72
53908;BME280;40469;47.998;7.794;2022-07-22T09:22:40;99057.31;;;24.70;61.79
53908;BME280;40469;47.998;7.794;2022-07-22T09:27:48;99060.75;;;25.25;58.97
53908;BME280;40469;47.998;7.794;2022-07-22T09:30:15;99055.22;;;25.28;58.01
53908;BME280;40469;47.998;7.794;2022-07-22T09:32:43;99054.34;;;25.66;57.89
53908;BME280;40469;47.998;7.794;2022-07-22T09:35:09;99048.13;;;25.78;55.84
53908;BME280;40469;47.998;7.794;2022-07-22T09:37:53;99048.41;;;26.12;55.92
53908;BME280;40469;47.998;7.794;2022-07-22T09:40:30;99050.19;;;26.48;54.77
53908;BME280;40469;47.998;7.794;2022-07-22T09:43:00;99052.88;;;26.11;54.99
53908;BME280;40469;47.998;7.794;2022-07-22T09:45:28;99051.09;;;25.86;55.75
53908;BME280;40469;47.998;7.794;2022-07-22T09:47:55;99055.75;;;25.46;55.92
53908;BME280;40469;47.998;7.794;2022-07-22T09:50:28;99048.84;;;25.93;55.33
53908;BME280;40469;47.998;7.794;2022-07-22T09:52:56;99050.31;;;26.23;54.47
53908;BME280;40469;47.998;7.794;2022-07-22T09:55:23;99042.47;;;26.81;53.20
53908;BME280;40469;47.998;7.794;2022-07-22T09:57:50;99041.13;;;26.86;52.04
53908;BME280;40469;47.998;7.794;2022-07-22T10:00:18;99039.31;;;26.87;52.98
53908;BME280;40469;47.998;7.794;2022-07-22T10:02:50;99030.66;;;28.09;49.51
53908;BME280;40469;47.998;7.794;2022-07-22T10:05:18;99033.34;;;28.64;48.49
53908;BME280;40469;47.998;7.794;2022-07-22T10:07:46;99028.88;;;28.42;48.02
53908;BME280;40469;47.998;7.794;2022-07-22T10:10:14;99025.94;;;28.02;48.58
53908;BME280;40469;47.998;7.794;2022-07-22T10:12:40;99022.69;;;28.30;48.26
53908;BME280;40469;47.998;7.794;2022-07-22T10:15:07;99015.09;;;28.35;48.20
53908;BME280;40469;47.998;7.794;2022-07-22T10:17:35;99020.44;;;28.58;47.13
53908;BME280;40469;47.998;7.794;2022-07-22T10:20:02;99019.50;;;28.80;47.12
53908;BME280;40469;47.998;7.794;2022-07-22T10:25:10;99005.78;;;29.04;45.29
53908;BME280;40469;47.998;7.794;2022-07-22T10:27:50;99002.31;;;29.65;45.07
53908;BME280;40469;47.998;7.794;2022-07-22T10:30:27;99001.56;;;29.94;44.26
53908;BME280;40469;47.998;7.794;2022-07-22T10:33:12;98996.97;;;29.75;44.67
53908;BME280;40469;47.998;7.794;2022-07-22T10:35:56;98988.72;;;30.17;43.70
53908;BME280;40469;47.998;7.794;2022-07-22T10:38:22;98996.97;;;30.84;42.94
53908;BME280;40469;47.998;7.794;2022-07-22T10:40:49;98988.78;;;30.66;41.88
53908;BME280;40469;47.998;7.794;2022-07-22T10:43:17;98987.22;;;30.34;43.61
53908;BME280;40469;47.998;7.794;2022-07-22T10:45:51;98983.38;;;30.37;43.43
53908;BME280;40469;47.998;7.794;2022-07-22T10:48:19;98983.78;;;31.00;42.27
53908;BME280;40469;47.998;7.794;2022-07-22T10:50:53;98979.69;;;31.44;41.69
53908;BME280;40469;47.998;7.794;2022-07-22T10:53:25;98976.56;;;31.38;40.94
53908;BME280;40469;47.998;7.794;2022-07-22T10:56:07;98978.94;;;31.14;42.11
53908;BME280;40469;47.998;7.794;2022-07-22T11:01:06;98967.03;;;31.07;42.79
53908;BME280;40469;47.998;7.794;2022-07-22T11:03:34;98968.22;;;31.32;41.66
53908;BME280;40469;47.998;7.794;2022-07-22T11:08:43;98960.94;;;30.95;42.46
53908;BME280;40469;47.998;7.794;2022-07-22T11:11:09;98956.38;;;31.15;41.82
53908;BME280;40469;47.998;7.794;2022-07-22T11:13:39;98953.25;;;31.10;41.85
53908;BME280;40469;47.998;7.794;2022-07-22T11:16:15;98949.63;;;31.66;40.90
53908;BME280;40469;47.998;7.794;2022-07-22T11:18:48;98946.34;;;31.90;40.10
53908;BME280;40469;47.998;7.794;2022-07-22T11:21:19;98944.72;;;32.07;40.61
53908;BME280;40469;47.998;7.794;2022-07-22T11:23:44;98944.25;;;31.66;40.79
53908;BME280;40469;47.998;7.794;2022-07-22T11:26:14;98946.75;;;31.68;40.72
53908;BME280;40469;47.998;7.794;2022-07-22T11:28:42;98944.25;;;31.66;40.17
53908;BME280;40469;47.998;7.794;2022-07-22T11:31:15;98934.75;;;32.08;40.33
53908;BME280;40469;47.998;7.794;2022-07-22T11:33:41;98928.97;;;32.39;39.43
53908;BME280;40469;47.998;7.794;2022-07-22T11:36:08;98930.09;;;32.00;40.25
53908;BME280;40469;47.998;7.794;2022-07-22T11:38:48;98928.66;;;32.06;39.53
53908;BME280;40469;47.998;7.794;2022-07-22T11:41:15;98924.97;;;32.07;39.70
53908;BME280;40469;47.998;7.794;2022-07-22T11:43:46;98925.69;;;31.99;40.82
53908;BME280;40469;47.998;7.794;2022-07-22T11:46:12;98920.72;;;31.77;41.44
53908;BME280;40469;47.998;7.794;2022-07-22T11:48:38;98928.91;;;31.85;40.50
53908;BME280;40469;47.998;7.794;2022-07-22T11:51:05;98925.13;;;31.78;41.14
53908;BME280;40469;47.998;7.794;2022-07-22T11:53:31;98923.94;;;31.62;41.54
53908;BME280;40469;47.998;7.794;2022-07-22T11:55:58;98915.56;;;31.83;41.06
53908;BME280;40469;47.998;7.794;2022-07-22T11:58:53;98915.31;;;31.77;41.47
53908;BME280;40469;47.998;7.794;2022-07-22T12:01:28;98919.28;;;31.82;41.44
53908;BME280;40469;47.998;7.794;2022-07-22T12:03:57;98911.66;;;32.13;40.69
53908;BME280;40469;47.998;7.794;2022-07-22T12:06:24;98905.09;;;31.98;41.43
53908;BME280;40469;47.998;7.794;2022-07-22T12:08:55;98895.66;;;32.56;41.89
53908;BME280;40469;47.998;7.794;2022-07-22T12:11:22;98889.84;;;32.25;41.17
53908;BME280;40469;47.998;7.794;2022-07-22T12:13:50;98892.97;;;32.02;41.08
53908;BME280;40469;47.998;7.794;2022-07-22T12:16:30;98890.72;;;31.98;41.71
53908;BME280;40469;47.998;7.794;2022-07-22T12:19:01;98881.56;;;32.08;41.38
53908;BME280;40469;47.998;7.794;2022-07-22T12:21:32;98887.19;;;31.97;42.65
53908;BME280;40469;47.998;7.794;2022-07-22T12:24:06;98884.09;;;31.92;41.40
53908;BME280;40469;47.998;7.794;2022-07-22T12:26:48;98878.63;;;32.02;41.63
53908;BME280;40469;47.998;7.794;2022-07-22T12:32:03;98868.84;;;32.81;40.48
53908;BME280;40469;47.998;7.794;2022-07-22T12:34:35;98855.75;;;33.02;40.24
53908;BME280;40469;47.998;7.794;2022-07-22T12:39:36;98854.75;;;33.38;39.20
53908;BME280;40469;47.998;7.794;2022-07-22T12:42:02;98860.22;;;33.62;38.94
53908;BME280;40469;47.998;7.794;2022-07-22T12:44:27;98852.38;;;34.27;38.15
53908;BME280;40469;47.998;7.794;2022-07-22T12:46:54;98860.84;;;34.15;37.17
53908;BME280;40469;47.998;7.794;2022-07-22T12:49:22;98851.94;;;33.64;38.04
53908;BME280;40469;47.998;7.794;2022-07-22T12:52:10;98858.38;;;33.63;38.91
53908;BME280;40469;47.998;7.794;2022-07-22T12:54:37;98852.34;;;33.86;37.50
53908;BME280;40469;47.998;7.794;2022-07-22T12:57:03;98852.69;;;34.07;37.37
53908;BME280;40469;47.998;7.794;2022-07-22T12:59:29;98852.34;;;34.02;38.28
53908;BME280;40469;47.998;7.794;2022-07-22T13:01:55;98849.34;;;34.22;37.56
53908;BME280;40469;47.998;7.794;2022-07-22T13:04:20;98850.31;;;33.88;38.18
53908;BME280;40469;47.998;7.794;2022-07-22T13:06:46;98854.66;;;33.64;38.13
53908;BME280;40469;47.998;7.794;2022-07-22T13:09:11;98844.28;;;34.18;37.74
53908;BME280;40469;47.998;7.794;2022-07-22T13:11:36;98857.09;;;33.92;38.60
53908;BME280;40469;47.998;7.794;2022-07-22T13:14:05;98844.78;;;33.55;38.09
53908;BME280;40469;47.998;7.794;2022-07-22T13:16:32;98844.44;;;33.07;38.53